Aérodrome :
LOGIN :

S'inscrire | Disclaimer

   EN    FR    IT 

 










Légende :    VFR   VFR Marginal   IFR   IFR Intensif   IFR Très Intensif
Visi : 
Plafond : 
>= 8 km
>= 3000ft
5 à 8 km
1000 à 3000 ft
1500m à 5 km
500 à 1000 ft
800 à 1500m
200 à 500 ft
< 800m
< 200 ft
Symboles :   Orages  Brouillard  Fortes neiges  Fortes précipitations  Vent > 20 kt
SIGMETs :   Divers  Orages  Givrage  Turbulence  Onde Orograph.  Cendres Volcan.







- Altitude de l'aérodrome : 5600 ft
- Code IATA : SMV


LSZS - Samedan

DERNIER METAR :
  • 241550Z 20017KT 9999 SCT048 05/01 Q1024 RMK T

METARs EXPIRÉS :
  • 241520Z 21014KT 9999 SCT048 07/02 Q1024 RMK S
  • 241450Z 22007KT 9999 FEW048 09/00 Q1024 RMK R
  • 241420Z 22010KT 9999 FEW048 BKN100 08/02 Q1024 RMK Q
  • 241350Z 23009KT 9999 FEW048 BKN100 08/01 Q1024 RMK P
  • 241320Z 21005KT 9999 FEW040 BKN100 08/M01 Q1024 RMK O
  • 241250Z 21011KT 9999 FEW040 BKN100 08/00 Q1024 RMK N

TAF TAF LSZS
Valide du 24 à 15h jusqu'au 25 à 00h UTC


241425Z 2415/2424 22008KT 9999 FEW045 BKN100 TX08/2415Z
BECMG 2417/2419 CAVOK
ATIS : +41 81 834 93 24
Pas de NOTAMs connus pour ce terrain.



MET'MAP, la Météo Aéronautique d'un coup d'oeil ! - Copyright ORBIFLY Décembre 2007 - Disclaimer

ORBIFLY MET'MAP TEAM :

Programmation & Développement : Alexandra Zaïnal
Conception & Développement : Baudouin d'Aumeries
Co-Programmation & Développement : Marc-Olivier Méhu
Soutien technique & logistique : Manuel Goepfert

Contact : metmap@orbifly.com




SOURCES & CREDITS :

   NOAA